createdAt,value
2022-11-10T00:00:30.965Z,100941.91
2022-11-10T00:03:07.697Z,100942.75
2022-11-10T00:05:39.246Z,100947.84
2022-11-10T00:08:08.504Z,100945.19
2022-11-10T00:11:01.446Z,100950.25
2022-11-10T00:13:59.180Z,100951.00
2022-11-10T00:16:46.812Z,100956.94
2022-11-10T00:19:13.825Z,100958.47
2022-11-10T00:21:40.741Z,100968.66
2022-11-10T00:24:10.152Z,100962.78
2022-11-10T00:26:41.611Z,100971.44
2022-11-10T00:29:13.399Z,100976.41
2022-11-10T00:31:41.225Z,100976.31
2022-11-10T00:34:14.005Z,100980.94
2022-11-10T00:36:41.561Z,100980.81
2022-11-10T00:39:11.765Z,100981.66
2022-11-10T00:41:38.724Z,100986.94
2022-11-10T00:44:07.681Z,100981.38
2022-11-10T00:46:34.718Z,100990.16
2022-11-10T00:49:04.081Z,100993.19
2022-11-10T00:51:33.567Z,100999.97
2022-11-10T00:54:00.467Z,101005.53
2022-11-10T00:56:27.478Z,100993.78
2022-11-10T00:58:54.388Z,100996.06
2022-11-10T01:01:26.598Z,101000.81
2022-11-10T01:03:54.206Z,101000.22
2022-11-10T01:06:22.334Z,101016.00
2022-11-10T01:08:54.359Z,101012.41
2022-11-10T01:11:27.596Z,101020.66
2022-11-10T01:13:59.084Z,101020.41
2022-11-10T01:16:31.941Z,101029.81
2022-11-10T01:19:01.787Z,101025.69
2022-11-10T01:21:30.618Z,101025.69
2022-11-10T01:23:57.824Z,101029.97
2022-11-10T01:26:26.440Z,101043.91
2022-11-10T01:28:53.405Z,101037.06
2022-11-10T01:31:24.569Z,101038.81
2022-11-10T01:33:56.058Z,101039.78
2022-11-10T01:36:22.949Z,101045.63
2022-11-10T01:38:49.887Z,101045.41
2022-11-10T01:41:19.217Z,101053.84
2022-11-10T01:43:48.678Z,101053.88
2022-11-10T01:46:15.716Z,101069.16
2022-11-10T01:48:51.306Z,101068.13
2022-11-10T01:51:49.093Z,101074.75
2022-11-10T01:54:28.477Z,101073.59
2022-11-10T01:57:01.504Z,101067.81
2022-11-10T01:59:37.966Z,101083.06
2022-11-10T02:02:35.091Z,101077.31
2022-11-10T02:05:06.984Z,101088.03
2022-11-10T02:07:36.716Z,101090.91
2022-11-10T02:10:14.476Z,101096.22
2022-11-10T02:12:41.531Z,101090.63
2022-11-10T02:15:13.689Z,101102.53
2022-11-10T02:17:41.365Z,101107.09
2022-11-10T02:20:13.616Z,101110.50
2022-11-10T02:22:41.085Z,101117.47
2022-11-10T02:25:09.039Z,101110.31
2022-11-10T02:27:35.940Z,101113.22
2022-11-10T02:30:05.516Z,101111.38
2022-11-10T02:32:37.918Z,101124.28
2022-11-10T02:35:05.747Z,101123.94
2022-11-10T02:37:32.902Z,101120.88
2022-11-10T02:39:59.967Z,101129.38
2022-11-10T02:42:26.953Z,101132.94
2022-11-10T02:44:57.025Z,101139.22
2022-11-10T02:47:26.153Z,101136.69
2022-11-10T02:49:53.057Z,101148.41
2022-11-10T02:52:19.964Z,101138.56
2022-11-10T02:54:46.853Z,101141.22
2022-11-10T02:57:15.912Z,101147.00
2022-11-10T02:59:45.798Z,101144.00
2022-11-10T03:02:12.784Z,101143.47
2022-11-10T03:04:39.666Z,101150.44
2022-11-10T03:07:06.806Z,101149.44
2022-11-10T03:09:36.158Z,101147.34
2022-11-10T03:12:03.127Z,101148.75
2022-11-10T03:14:34.680Z,101153.69
2022-11-10T03:17:03.835Z,101162.84
2022-11-10T03:19:30.675Z,101161.31
2022-11-10T03:21:59.707Z,101162.00
2022-11-10T03:24:26.667Z,101175.53
2022-11-10T03:26:56.029Z,101183.75
2022-11-10T03:29:25.447Z,101196.13
2022-11-10T03:31:54.513Z,101197.00
2022-11-10T03:34:31.542Z,101193.94
2022-11-10T03:36:58.876Z,101179.31
2022-11-10T03:39:25.804Z,101202.44
2022-11-10T03:41:52.721Z,101199.38
2022-11-10T03:44:21.962Z,101205.16
2022-11-10T03:46:53.680Z,101207.50
2022-11-10T03:49:23.146Z,101210.13
2022-11-10T03:51:52.302Z,101205.09
2022-11-10T03:54:19.213Z,101208.16
2022-11-10T03:56:46.198Z,101215.69
2022-11-10T03:59:15.204Z,101217.41
2022-11-10T04:01:44.388Z,101202.97
2022-11-10T04:04:31.680Z,101212.28
2022-11-10T04:07:16.957Z,101212.56
2022-11-10T04:09:46.122Z,101215.00
2022-11-10T04:12:31.364Z,101219.25
2022-11-10T04:15:16.546Z,101232.34
2022-11-10T04:17:50.573Z,101223.31
2022-11-10T04:20:19.974Z,101238.78
2022-11-10T04:23:07.767Z,101251.56
2022-11-10T04:25:56.932Z,101265.34
2022-11-10T04:28:23.821Z,101260.25
2022-11-10T04:30:50.774Z,101264.31
2022-11-10T04:33:20.025Z,101266.97
2022-11-10T04:35:47.124Z,101275.66
2022-11-10T04:38:14.057Z,101281.66
2022-11-10T04:40:40.934Z,101283.31
2022-11-10T04:43:07.870Z,101277.84
2022-11-10T04:45:37.289Z,101278.69
2022-11-10T04:48:04.344Z,101281.53
2022-11-10T04:50:32.305Z,101283.19
2022-11-10T04:53:01.555Z,101289.47
2022-11-10T04:55:28.438Z,101278.59
2022-11-10T04:57:55.692Z,101286.22
2022-11-10T05:00:23.422Z,101285.22
2022-11-10T05:02:50.421Z,101287.38
2022-11-10T05:05:17.340Z,101278.50
2022-11-10T05:07:47.884Z,101291.84
2022-11-10T05:10:17.994Z,101299.84
2022-11-10T05:12:47.372Z,101299.81
2022-11-10T05:15:14.448Z,101312.13
2022-11-10T05:17:41.470Z,101307.25
2022-11-10T05:20:09.379Z,101319.53
2022-11-10T05:22:36.324Z,101317.19
2022-11-10T05:25:03.276Z,101322.53
2022-11-10T05:27:30.211Z,101334.94
2022-11-10T05:29:57.143Z,101332.53
2022-11-10T05:32:24.082Z,101324.97
2022-11-10T05:34:50.933Z,101324.25
2022-11-10T05:37:17.788Z,101327.97
2022-11-10T05:39:49.633Z,101334.47
2022-11-10T05:42:19.582Z,101334.44
2022-11-10T05:44:48.781Z,101336.81
2022-11-10T05:47:15.705Z,101343.34
2022-11-10T05:49:45.212Z,101347.56
2022-11-10T05:52:12.146Z,101344.88
2022-11-10T05:54:43.819Z,101354.41
2022-11-10T05:57:10.808Z,101358.63
2022-11-10T05:59:40.229Z,101357.19
2022-11-10T06:02:07.188Z,101354.38
2022-11-10T06:04:34.077Z,101370.59
2022-11-10T06:07:07.985Z,101373.47
2022-11-10T06:09:35.510Z,101372.91
2022-11-10T06:12:03.543Z,101377.25
2022-11-10T06:14:30.628Z,101376.56
2022-11-10T06:16:57.494Z,101388.19
2022-11-10T06:19:26.694Z,101389.84
2022-11-10T06:21:58.971Z,101400.22
2022-11-10T06:24:30.755Z,101405.91
2022-11-10T06:26:59.953Z,101408.72
2022-11-10T06:29:27.210Z,101418.53
2022-11-10T06:31:57.183Z,101424.19
2022-11-10T06:34:24.235Z,101432.88
2022-11-10T06:36:51.194Z,101440.88
2022-11-10T06:39:20.157Z,101434.53
2022-11-10T06:41:47.395Z,101439.38
2022-11-10T06:44:16.811Z,101456.59
2022-11-10T06:46:46.346Z,101467.53
2022-11-10T06:49:15.755Z,101469.47
2022-11-10T06:51:42.722Z,101474.13
2022-11-10T06:54:09.870Z,101476.78
2022-11-10T06:56:36.853Z,101485.31
2022-11-10T06:59:07.035Z,101492.34
2022-11-10T07:01:34.130Z,101487.91
2022-11-10T07:04:19.585Z,101497.69
2022-11-10T07:06:48.029Z,101502.06
2022-11-10T07:09:17.678Z,101499.56
2022-11-10T07:11:47.601Z,101512.41
2022-11-10T07:14:14.547Z,101509.97
2022-11-10T07:16:44.028Z,101517.69
2022-11-10T07:19:10.969Z,101511.63
2022-11-10T07:21:43.536Z,101519.56
2022-11-10T07:24:10.691Z,101524.44
2022-11-10T07:26:37.704Z,101524.94
2022-11-10T07:29:06.779Z,101533.91
2022-11-10T07:31:36.034Z,101537.13
2022-11-10T07:34:05.897Z,101544.66
2022-11-10T07:36:35.394Z,101553.25
2022-11-10T07:39:02.325Z,101562.88
2022-11-10T07:41:29.470Z,101566.91
2022-11-10T07:43:56.438Z,101575.47
2022-11-10T07:46:23.448Z,101567.47
2022-11-10T07:48:54.939Z,101576.69
2022-11-10T07:51:24.412Z,101587.03
2022-11-10T07:53:55.893Z,101588.63
2022-11-10T07:56:23.113Z,101596.84
2022-11-10T07:58:54.637Z,101584.97
2022-11-10T08:01:21.846Z,101586.94
2022-11-10T08:03:53.653Z,101588.09
2022-11-10T08:06:20.678Z,101608.06
2022-11-10T08:08:47.905Z,101610.47
2022-11-10T08:11:14.811Z,101626.78
2022-11-10T08:13:47.342Z,101625.28
2022-11-10T08:16:14.350Z,101627.16
2022-11-10T08:18:41.360Z,101625.06
2022-11-10T08:21:08.400Z,101608.97
2022-11-10T08:23:35.383Z,101605.13
2022-11-10T08:26:02.270Z,101629.72
2022-11-10T08:28:31.438Z,101624.66
2022-11-10T08:31:02.845Z,101631.91
2022-11-10T08:33:39.251Z,101640.13
2022-11-10T08:36:06.547Z,101640.44
2022-11-10T08:38:35.739Z,101635.16
2022-11-10T08:41:02.787Z,101664.03
2022-11-10T08:43:32.212Z,101643.63
2022-11-10T08:46:01.977Z,101645.44
2022-11-10T08:48:29.018Z,101641.09
2022-11-10T08:50:59.848Z,101650.69
2022-11-10T08:53:27.077Z,101656.44
2022-11-10T08:55:54.171Z,101659.06
2022-11-10T08:58:24.947Z,101660.69
2022-11-10T09:00:54.399Z,101666.91
2022-11-10T09:03:24.803Z,101670.59
2022-11-10T09:05:58.381Z,101671.81
2022-11-10T09:08:26.516Z,101673.72
2022-11-10T09:10:56.279Z,101666.06
2022-11-10T09:13:29.958Z,101674.09
2022-11-10T09:16:02.728Z,101676.13
2022-11-10T09:18:34.414Z,101679.81
2022-11-10T09:21:06.705Z,101686.44
2022-11-10T09:23:38.167Z,101677.78
2022-11-10T09:26:07.656Z,101670.19
2022-11-10T09:28:34.561Z,101685.69
2022-11-10T09:31:04.548Z,101691.63
2022-11-10T09:33:34.067Z,101693.09
2022-11-10T09:36:02.190Z,101692.31
2022-11-10T09:38:29.158Z,101704.31
2022-11-10T09:41:18.305Z,101713.13
2022-11-10T09:44:17.670Z,101711.78
2022-11-10T09:47:12.465Z,101714.25
2022-11-10T09:49:57.918Z,101718.78
2022-11-10T09:52:27.711Z,101726.03
2022-11-10T09:55:19.687Z,101727.00
2022-11-10T09:57:50.818Z,101730.63
2022-11-10T10:00:18.686Z,101733.56
2022-11-10T10:03:01.605Z,101724.38
2022-11-10T10:05:46.579Z,101737.03
2022-11-10T10:08:31.887Z,101731.25
2022-11-10T10:11:53.224Z,101728.50
2022-11-10T10:14:45.553Z,101733.53
2022-11-10T10:17:26.177Z,101722.69
2022-11-10T10:20:20.416Z,101729.59
2022-11-10T10:23:02.240Z,101736.28
2022-11-10T10:25:30.452Z,101740.22
2022-11-10T10:28:07.086Z,101741.25
2022-11-10T10:30:36.205Z,101752.22
2022-11-10T10:33:19.358Z,101747.47
2022-11-10T10:35:49.791Z,101743.31
2022-11-10T10:38:38.112Z,101743.84
2022-11-10T10:41:28.997Z,101745.41
2022-11-10T10:44:00.472Z,101751.91
2022-11-10T10:46:35.716Z,101759.25
2022-11-10T10:49:30.027Z,101750.81
2022-11-10T10:52:14.168Z,101755.81
2022-11-10T10:54:41.403Z,101760.78
2022-11-10T10:57:30.071Z,101753.91
2022-11-10T11:00:23.919Z,101758.91
2022-11-10T11:03:23.290Z,101761.00
2022-11-10T11:06:19.157Z,101755.81
2022-11-10T11:09:06.142Z,101750.75
2022-11-10T11:11:39.370Z,101751.66
2022-11-10T11:14:27.850Z,101762.84
2022-11-10T11:17:22.383Z,101763.47
2022-11-10T11:19:59.907Z,101763.47
2022-11-10T11:22:57.040Z,101765.81
2022-11-10T11:25:34.409Z,101770.59
2022-11-10T11:28:26.383Z,101766.38
2022-11-10T11:31:38.765Z,101771.06
2022-11-10T11:34:32.892Z,101767.66
2022-11-10T11:37:18.033Z,101775.31
2022-11-10T11:40:23.156Z,101780.03
2022-11-10T11:43:18.382Z,101787.22
2022-11-10T11:46:14.507Z,101786.06
2022-11-10T11:48:53.127Z,101792.09
2022-11-10T11:51:30.713Z,101791.06
2022-11-10T11:54:22.261Z,101790.00
2022-11-10T11:56:51.953Z,101797.94
2022-11-10T11:59:50.756Z,101807.00
2022-11-10T12:02:56.702Z,101820.09
2022-11-10T12:06:05.348Z,101805.50
2022-11-10T12:09:16.886Z,101811.53
2022-11-10T12:12:04.872Z,101802.97
2022-11-10T12:15:17.685Z,101816.47
2022-11-10T12:18:05.650Z,101816.97
2022-11-10T12:20:55.439Z,101820.69
2022-11-10T12:23:59.990Z,101826.28
2022-11-10T12:26:50.291Z,101814.56
2022-11-10T12:29:25.732Z,101821.13
2022-11-10T12:32:24.209Z,101824.31
2022-11-10T12:35:47.152Z,101813.47
2022-11-10T12:38:20.763Z,101819.75
2022-11-10T12:40:52.964Z,101815.06
2022-11-10T12:43:35.294Z,101803.91
2022-11-10T12:46:11.919Z,101802.56
2022-11-10T12:49:20.294Z,101799.63
2022-11-10T12:52:46.768Z,101805.84
2022-11-10T12:55:18.666Z,101803.47
2022-11-10T12:57:46.024Z,101798.72
2022-11-10T13:00:32.479Z,101814.16
2022-11-10T13:03:00.107Z,101812.69
2022-11-10T13:05:42.129Z,101812.59
2022-11-10T13:08:27.511Z,101813.81
2022-11-10T13:10:59.654Z,101827.34
2022-11-10T13:13:29.699Z,101838.88
2022-11-10T13:16:00.634Z,101836.50
2022-11-10T13:18:30.595Z,101842.47
2022-11-10T13:20:59.515Z,101843.75
2022-11-10T13:23:44.609Z,101853.56
2022-11-10T13:26:44.718Z,101861.78
2022-11-10T13:29:47.107Z,101861.03
2022-11-10T13:32:14.009Z,101857.97
2022-11-10T13:34:46.098Z,101861.78
2022-11-10T13:37:34.939Z,101859.34
2022-11-10T13:40:28.088Z,101866.06
2022-11-10T13:42:57.754Z,101864.16
2022-11-10T13:45:49.553Z,101872.91
2022-11-10T13:48:44.939Z,101872.03
2022-11-10T13:51:46.029Z,101873.19
2022-11-10T13:54:24.221Z,101879.16
2022-11-10T13:57:07.874Z,101887.38
2022-11-10T13:59:47.814Z,101887.47
2022-11-10T14:02:36.512Z,101879.13
2022-11-10T14:05:09.926Z,101897.28
2022-11-10T14:07:46.549Z,101893.94
2022-11-10T14:10:45.653Z,101898.84
2022-11-10T14:13:24.305Z,101894.88
2022-11-10T14:15:54.206Z,101906.38
2022-11-10T14:18:23.185Z,101909.97
2022-11-10T14:20:57.872Z,101911.69
2022-11-10T14:23:45.849Z,101914.41
2022-11-10T14:26:35.687Z,101910.66
2022-11-10T14:29:35.908Z,101916.44
2022-11-10T14:32:25.172Z,101914.75
2022-11-10T14:34:57.856Z,101912.38
2022-11-10T14:37:30.435Z,101907.44
2022-11-10T14:40:04.342Z,101913.34
2022-11-10T14:42:36.030Z,101919.88
2022-11-10T14:45:27.086Z,101904.00
2022-11-10T14:47:58.076Z,101920.75
2022-11-10T14:50:25.079Z,101918.19
2022-11-10T14:53:07.438Z,101910.66
2022-11-10T14:55:36.633Z,101898.69
2022-11-10T14:58:15.047Z,101890.34
2022-11-10T15:00:46.899Z,101895.28
2022-11-10T15:03:44.178Z,101898.00
2022-11-10T15:06:16.967Z,101892.38
2022-11-10T15:08:46.850Z,101898.19
2022-11-10T15:11:54.285Z,101887.25
2022-11-10T15:14:42.458Z,101896.63
2022-11-10T15:17:24.837Z,101905.97
2022-11-10T15:20:00.470Z,101906.88
2022-11-10T15:22:30.205Z,101906.50
2022-11-10T15:25:00.913Z,101917.78
2022-11-10T15:27:32.428Z,101917.25
2022-11-10T15:30:02.138Z,101932.50
2022-11-10T15:32:42.109Z,101934.06
2022-11-10T15:35:29.190Z,101933.38
2022-11-10T15:38:06.200Z,101928.06
2022-11-10T15:40:42.586Z,101922.25
2022-11-10T15:43:13.819Z,101922.94
2022-11-10T15:45:43.024Z,101930.81
2022-11-10T15:48:14.141Z,101942.41
2022-11-10T15:50:44.295Z,101943.44
2022-11-10T15:53:18.191Z,101946.19
2022-11-10T15:55:50.423Z,101949.41
2022-11-10T15:58:26.934Z,101947.72
2022-11-10T16:00:56.610Z,101947.88
2022-11-10T16:03:24.412Z,101956.75
2022-11-10T16:05:55.975Z,101962.25
2022-11-10T16:08:26.681Z,101974.88
2022-11-10T16:10:56.508Z,101967.69
2022-11-10T16:13:32.566Z,101973.34
2022-11-10T16:16:00.506Z,101980.69
2022-11-10T16:18:31.697Z,101975.22
2022-11-10T16:20:58.982Z,101966.34
2022-11-10T16:23:28.803Z,101975.59
2022-11-10T16:25:57.448Z,101975.59
2022-11-10T16:28:29.426Z,101983.59
2022-11-10T16:30:56.492Z,101978.63
2022-11-10T16:33:25.159Z,101989.22
2022-11-10T16:35:59.746Z,101987.53
2022-11-10T16:38:29.992Z,101987.50
2022-11-10T16:41:06.133Z,101970.41
2022-11-10T16:43:33.357Z,101976.50
2022-11-10T16:46:05.814Z,101982.53
2022-11-10T16:48:35.681Z,101981.59
2022-11-10T16:51:05.310Z,101991.22
2022-11-10T16:53:32.331Z,101987.63
2022-11-10T16:56:01.843Z,101986.94
2022-11-10T16:58:28.775Z,101983.50
2022-11-10T17:01:01.243Z,101985.75
2022-11-10T17:03:36.494Z,101987.13
2022-11-10T17:06:05.284Z,101992.94
2022-11-10T17:08:35.645Z,102001.88
2022-11-10T17:11:02.635Z,102016.72
2022-11-10T17:13:29.704Z,102014.34
2022-11-10T17:16:14.983Z,102007.31
2022-11-10T17:18:42.138Z,102005.25
2022-11-10T17:21:09.334Z,102010.22
2022-11-10T17:23:36.421Z,102008.97
2022-11-10T17:26:03.579Z,102011.50
2022-11-10T17:28:33.067Z,102016.47
2022-11-10T17:31:04.549Z,102017.47
2022-11-10T17:33:31.558Z,102010.34
2022-11-10T17:36:02.499Z,102012.22
2022-11-10T17:38:33.348Z,102019.91
2022-11-10T17:41:02.329Z,102014.44
2022-11-10T17:43:31.881Z,102010.00
2022-11-10T17:45:58.921Z,102028.16
2022-11-10T17:48:25.935Z,102014.06
2022-11-10T17:50:55.161Z,102023.66
2022-11-10T17:53:26.197Z,102013.78
2022-11-10T17:55:56.307Z,102022.66
2022-11-10T17:58:23.540Z,102029.53
2022-11-10T18:00:50.829Z,102030.56
2022-11-10T18:03:21.044Z,102032.25
2022-11-10T18:05:48.346Z,102029.72
2022-11-10T18:08:16.833Z,102033.31
2022-11-10T18:10:52.173Z,102028.47
2022-11-10T18:13:21.903Z,102032.41
2022-11-10T18:15:49.192Z,102026.63
2022-11-10T18:18:18.043Z,102029.44
2022-11-10T18:20:45.759Z,102029.34
2022-11-10T18:23:15.250Z,102032.16
2022-11-10T18:25:43.171Z,102021.81
2022-11-10T18:28:16.121Z,102031.88
2022-11-10T18:30:43.264Z,102035.84
2022-11-10T18:33:12.248Z,102021.84
2022-11-10T18:35:40.500Z,102035.72
2022-11-10T18:38:09.636Z,102045.38
2022-11-10T18:40:36.592Z,102036.91
2022-11-10T18:43:07.473Z,102029.03
2022-11-10T18:45:39.299Z,102031.88
2022-11-10T18:48:06.846Z,102036.22
2022-11-10T18:50:39.608Z,102036.41
2022-11-10T18:53:08.807Z,102046.16
2022-11-10T18:55:35.670Z,102034.41
2022-11-10T18:58:02.748Z,102043.94
2022-11-10T19:00:34.384Z,102048.00
2022-11-10T19:03:01.447Z,102046.66
2022-11-10T19:05:29.070Z,102047.34
2022-11-10T19:07:56.037Z,102047.53
2022-11-10T19:10:25.158Z,102042.38
2022-11-10T19:12:54.250Z,102042.97
2022-11-10T19:15:21.227Z,102042.28
2022-11-10T19:17:48.054Z,102048.00
2022-11-10T19:20:20.502Z,102046.88
2022-11-10T19:22:47.421Z,102040.06
2022-11-10T19:25:14.485Z,102063.53
2022-11-10T19:27:41.447Z,102055.78
2022-11-10T19:30:09.333Z,102061.16
2022-11-10T19:32:36.305Z,102059.97
2022-11-10T19:35:04.343Z,102056.75
2022-11-10T19:37:34.875Z,102052.75
2022-11-10T19:40:02.369Z,102045.34
2022-11-10T19:42:29.204Z,102056.34
2022-11-10T19:44:56.189Z,102062.16
2022-11-10T19:47:23.107Z,102069.75
2022-11-10T19:49:52.572Z,102058.09
2022-11-10T19:52:22.013Z,102066.56
2022-11-10T19:54:51.099Z,102068.53
2022-11-10T19:57:18.093Z,102067.00
2022-11-10T19:59:47.234Z,102067.34
2022-11-10T20:02:16.262Z,102066.28
2022-11-10T20:05:01.342Z,102058.66
2022-11-10T20:07:46.780Z,102065.59
2022-11-10T20:10:15.976Z,102070.13
2022-11-10T20:12:43.140Z,102075.19
2022-11-10T20:15:11.311Z,102076.81
2022-11-10T20:17:38.329Z,102072.38
2022-11-10T20:20:06.291Z,102074.06
2022-11-10T20:22:33.325Z,102084.06
2022-11-10T20:25:00.579Z,102089.09
2022-11-10T20:27:27.572Z,102087.75
2022-11-10T20:29:57.153Z,102091.78
2022-11-10T20:32:25.744Z,102085.59
2022-11-10T20:34:52.768Z,102092.53
2022-11-10T20:37:24.993Z,102088.16
2022-11-10T20:39:51.896Z,102106.91
2022-11-10T20:42:18.883Z,102108.53
2022-11-10T20:44:45.808Z,102118.19
2022-11-10T20:47:12.818Z,102122.47
2022-11-10T20:49:39.757Z,102110.19
2022-11-10T20:52:06.735Z,102126.72
2022-11-10T20:54:36.140Z,102126.84
2022-11-10T20:57:05.498Z,102134.25
2022-11-10T20:59:32.442Z,102130.69
2022-11-10T21:01:59.352Z,102126.91
2022-11-10T21:04:28.577Z,102120.06
2022-11-10T21:07:00.541Z,102139.34
2022-11-10T21:09:27.775Z,102137.72
2022-11-10T21:12:13.290Z,102134.25
2022-11-10T21:14:40.332Z,102145.13
2022-11-10T21:17:10.288Z,102154.50
2022-11-10T21:19:37.188Z,102149.97
2022-11-10T21:22:06.699Z,102149.53
2022-11-10T21:24:39.631Z,102152.78
2022-11-10T21:27:12.131Z,102155.13
2022-11-10T21:29:42.372Z,102151.69
2022-11-10T21:32:14.278Z,102149.81
2022-11-10T21:34:44.224Z,102152.47
2022-11-10T21:37:13.587Z,102155.91
2022-11-10T21:39:42.231Z,102164.00
2022-11-10T21:42:11.611Z,102165.50
2022-11-10T21:44:43.444Z,102173.03
2022-11-10T21:47:15.092Z,102157.88
2022-11-10T21:49:44.126Z,102155.44
2022-11-10T21:52:13.525Z,102159.97
2022-11-10T21:54:40.558Z,102159.66
2022-11-10T21:57:07.528Z,102166.41
2022-11-10T21:59:36.866Z,102171.97
2022-11-10T22:02:06.482Z,102169.47
2022-11-10T22:04:33.757Z,102161.47
2022-11-10T22:07:18.942Z,102160.84
2022-11-10T22:10:07.122Z,102163.47
2022-11-10T22:12:55.055Z,102168.28
2022-11-10T22:15:40.913Z,102167.38
2022-11-10T22:18:35.606Z,102181.59
2022-11-10T22:21:04.686Z,102187.78
2022-11-10T22:23:50.358Z,102196.25
2022-11-10T22:26:20.956Z,102199.59
2022-11-10T22:28:52.552Z,102189.09
2022-11-10T22:31:24.134Z,102198.22
2022-11-10T22:33:53.222Z,102194.63
2022-11-10T22:36:21.728Z,102194.53
2022-11-10T22:38:49.705Z,102203.47
2022-11-10T22:41:35.988Z,102192.47
2022-11-10T22:44:06.248Z,102208.66
2022-11-10T22:46:39.050Z,102197.34
2022-11-10T22:49:09.696Z,102197.25
2022-11-10T22:51:38.715Z,102201.03
2022-11-10T22:54:11.968Z,102201.16
2022-11-10T22:56:39.432Z,102191.59
2022-11-10T22:59:06.911Z,102197.63
2022-11-10T23:01:35.104Z,102197.19
2022-11-10T23:04:02.910Z,102209.50
2022-11-10T23:06:30.881Z,102197.44
2022-11-10T23:08:58.925Z,102194.81
2022-11-10T23:11:32.057Z,102189.19
2022-11-10T23:13:59.162Z,102196.66
2022-11-10T23:16:33.383Z,102207.53
2022-11-10T23:19:00.374Z,102206.81
2022-11-10T23:21:33.074Z,102197.50
2022-11-10T23:24:02.100Z,102208.81
2022-11-10T23:26:34.923Z,102214.06
2022-11-10T23:29:01.905Z,102202.84
2022-11-10T23:31:31.313Z,102201.75
2022-11-10T23:34:00.285Z,102207.19
2022-11-10T23:36:27.784Z,102201.06
2022-11-10T23:38:57.265Z,102207.78
2022-11-10T23:41:26.043Z,102206.06
2022-11-10T23:43:58.198Z,102217.13
2022-11-10T23:46:25.190Z,102210.63
2022-11-10T23:48:52.186Z,102229.00
2022-11-10T23:51:24.814Z,102235.41
2022-11-10T23:53:51.700Z,102238.41
2022-11-10T23:56:22.578Z,102226.16
2022-11-10T23:58:49.411Z,102230.44
